Time;durP1;ratioP1;P1;durP2;ratioP2;P2;SDS_P1;SDS_P2;PMS_P1;PMS_P2;Temp;Humidity;BMP_temperature;BMP_pressure;BME280_temperature;BME280_humidity;BME280_pressure;Samples;Min_cycle;Max_cycle;Signal;HPM_P1;HPM_P2
2022/08/09 00:01:09;;;;;;;3.47;2.50;;;;;;;-140.72;100.00;52427.38;4993674;28;20042;-67
2022/08/09 00:03:35;;;;;;;4.32;2.95;;;;;;;-140.72;100.00;52431.44;4993736;28;20030;-68
2022/08/09 00:06:00;;;;;;;2.15;1.50;;;;;;;-140.72;100.00;52451.72;4993908;28;20039;-68
2022/08/09 00:08:25;;;;;;;7.72;2.40;;;;;;;-140.72;100.00;52419.28;4993382;28;20389;-68
2022/08/09 00:10:51;;;;;;;4.25;2.08;;;;;;;-140.72;100.00;52411.16;4993679;28;20502;-68
2022/08/09 00:13:16;;;;;;;5.57;2.42;;;;;;;-140.72;100.00;52407.09;5003642;28;20481;-68
2022/08/09 00:15:41;;;;;;;3.40;1.90;;;;;;;-140.72;100.00;52423.31;5001351;28;20026;-68
2022/08/09 00:18:07;;;;;;;3.45;2.13;;;;;;;-140.72;100.00;52463.91;5002267;28;20450;-68
2022/08/09 00:20:32;;;;;;;4.60;2.53;;;;;;;-140.72;100.00;52447.69;4993609;28;20023;-68
2022/08/09 00:22:58;;;;;;;2.40;1.98;;;;;;;-140.72;100.00;52435.50;4993348;28;20382;-68
2022/08/09 00:25:23;;;;;;;3.78;2.80;;;;;;;-140.72;100.00;52447.69;4993442;28;20482;-68
2022/08/09 00:27:48;;;;;;;2.53;2.00;;;;;;;-140.72;100.00;52467.97;4996140;28;20482;-68
2022/08/09 00:30:14;;;;;;;4.47;2.40;;;;;;;-140.72;100.00;52443.63;5009451;28;20057;-68
2022/08/09 00:32:40;;;;;;;4.88;2.33;;;;;;;-140.72;100.00;52447.69;4992383;28;20398;-67
2022/08/09 00:35:06;;;;;;;3.88;2.42;;;;;;;-140.72;100.00;52405.06;4993709;28;20050;-68
2022/08/09 00:37:31;;;;;;;4.32;2.70;;;;;;;-140.72;100.00;52453.75;4992364;28;20476;-67
2022/08/09 00:39:57;;;;;;;2.67;2.17;;;;;;;-140.72;100.00;52415.22;4993254;28;20107;-68
2022/08/09 00:42:22;;;;;;;3.50;2.50;;;;;;;-140.72;100.00;52455.78;4993265;28;20026;-67
2022/08/09 00:44:47;;;;;;;4.10;2.55;;;;;;;-140.72;100.00;52449.72;4992064;28;20109;-68
2022/08/09 00:47:13;;;;;;;4.55;2.03;;;;;;;-140.72;100.00;52463.91;4994145;28;20405;-68
2022/08/09 00:49:38;;;;;;;6.40;2.15;;;;;;;-140.72;100.00;52472.03;4996782;28;20037;-68
2022/08/09 00:52:05;;;;;;;3.95;2.53;;;;;;;-140.72;100.00;52431.44;4997043;28;20034;-68
2022/08/09 00:54:30;;;;;;;7.38;2.50;;;;;;;-140.72;100.00;52449.72;4997083;28;20035;-67
2022/08/09 00:56:55;;;;;;;5.05;2.72;;;;;;;-140.72;100.00;52459.84;5005474;28;20493;-67
2022/08/09 00:59:21;;;;;;;4.85;2.97;;;;;;;-140.72;100.00;52463.91;5002404;28;20030;-68
2022/08/09 01:01:49;;;;;;;5.43;2.08;;;;;;;-140.72;100.00;52447.69;4996769;28;20026;-67
2022/08/09 01:04:28;;;;;;;4.90;2.67;;;;;;;-140.72;100.00;52459.84;4997426;28;20070;-68
2022/08/09 01:07:18;;;;;;;3.78;2.63;;;;;;;-140.72;100.00;52467.97;4997421;28;20058;-68
2022/08/09 01:10:02;;;;;;;3.90;2.85;;;;;;;-140.72;100.00;52465.94;4993879;28;20073;-69
2022/08/09 01:12:41;;;;;;;4.45;3.03;;;;;;;-140.72;100.00;52467.97;4996440;28;20106;-67
2022/08/09 01:15:11;;;;;;;4.72;2.72;;;;;;;-140.72;100.00;52451.72;5001016;28;20037;-67
2022/08/09 01:17:39;;;;;;;;;;;;;;;-140.72;100.00;52461.88;4997557;28;20061;-67
2022/08/09 01:20:12;;;;;;;3.33;2.35;;;;;;;-140.72;100.00;52467.97;4997019;28;19984;-67
2022/08/09 01:22:49;;;;;;;3.45;2.35;;;;;;;-140.72;100.00;52451.72;4996555;28;20050;-68
2022/08/09 01:25:18;;;;;;;4.18;2.58;;;;;;;-140.72;100.00;52449.72;4994822;28;20122;-67
2022/08/09 01:27:48;;;;;;;3.40;2.60;;;;;;;-140.72;100.00;52494.34;4996485;28;20363;-68
2022/08/09 01:30:14;;;;;;;5.43;2.50;;;;;;;-140.72;100.00;52459.84;4994222;28;20389;-67
2022/08/09 01:32:44;;;;;;;4.60;2.88;;;;;;;-140.72;100.00;52435.50;5000549;28;20026;-68
2022/08/09 01:35:41;;;;;;;3.28;2.67;;;;;;;-140.72;100.00;52492.31;4994783;28;20046;-68
2022/08/09 01:38:36;;;;;;;3.63;2.83;;;;;;;-140.72;100.00;52457.81;4986249;28;20034;-68
2022/08/09 01:44:28;;;;;;;6.45;3.15;;;;;;;-140.72;100.00;52472.03;4995409;28;20053;-68
2022/08/09 01:47:32;;;;;;;4.75;2.40;;;;;;;-140.72;100.00;52478.13;4993718;28;20039;-67
2022/08/09 01:50:02;;;;;;;4.93;2.70;;;;;;;-140.72;100.00;52478.13;4997231;28;20060;-67
2022/08/09 01:52:29;;;;;;;6.95;3.83;;;;;;;-140.72;100.00;52463.91;4995609;28;20410;-68
2022/08/09 01:54:56;;;;;;;5.68;2.78;;;;;;;-140.72;100.00;52494.34;4994434;28;20030;-68
2022/08/09 01:57:44;;;;;;;4.55;3.05;;;;;;;-140.72;100.00;52443.63;5010746;28;20029;-68
2022/08/09 02:00:11;;;;;;;4.25;2.50;;;;;;;-140.72;100.00;52457.81;5010243;28;20030;-67
2022/08/09 02:02:43;;;;;;;5.60;3.75;;;;;;;-140.72;100.00;52492.31;5001217;28;20027;-68
2022/08/09 02:05:11;;;;;;;4.45;2.95;;;;;;;-140.72;100.00;52467.97;4995440;28;20394;-67
2022/08/09 02:07:40;;;;;;;4.45;3.15;;;;;;;-140.72;100.00;52504.50;4995517;28;20037;-67
2022/08/09 02:10:12;;;;;;;4.15;3.15;;;;;;;-140.72;100.00;52498.41;4999720;28;20091;-68
2022/08/09 02:12:38;;;;;;;5.45;3.10;;;;;;;-140.72;100.00;52518.69;4994341;28;20030;-68
2022/08/09 02:15:07;;;;;;;4.47;3.05;;;;;;;-140.72;100.00;52510.59;4995404;28;20072;-67
2022/08/09 02:17:33;;;;;;;3.55;2.50;;;;;;;-140.72;100.00;52482.16;4989253;28;20031;-68
2022/08/09 02:19:59;;;;;;;7.40;4.13;;;;;;;-140.72;100.00;52455.78;5007340;28;20034;-68
2022/08/09 02:22:36;;;;;;;6.30;2.88;;;;;;;-140.72;100.00;52500.44;4995451;28;20505;-67
2022/08/09 02:25:09;;;;;;;4.35;3.33;;;;;;;-140.72;100.00;52467.97;4995682;28;20034;-68
2022/08/09 02:27:37;;;;;;;4.53;3.58;;;;;;;-140.72;100.00;52467.97;4990463;28;20026;-67
2022/08/09 02:30:05;;;;;;;5.10;3.20;;;;;;;-140.72;100.00;52451.72;4990803;28;20034;-67
2022/08/09 02:32:36;;;;;;;5.65;3.67;;;;;;;-140.72;100.00;52474.06;4987240;28;20019;-68
2022/08/09 02:35:06;;;;;;;6.07;3.22;;;;;;;-140.72;100.00;52522.75;4996493;28;20054;-67
2022/08/09 02:38:01;;;;;;;7.07;3.70;;;;;;;-140.72;100.00;52449.72;4990658;28;20379;-68
2022/08/09 02:40:28;;;;;;;5.38;3.78;;;;;;;-140.72;100.00;52510.59;4994339;28;20363;-67
2022/08/09 02:43:27;;;;;;;4.90;3.80;;;;;;;-140.72;100.00;52480.16;4994534;28;20050;-67
2022/08/09 02:45:54;;;;;;;5.05;3.80;;;;;;;-140.72;100.00;52500.44;4992488;28;20470;-67
2022/08/09 02:48:21;;;;;;;5.25;4.30;;;;;;;-140.72;100.00;52498.41;4996057;28;20030;-67
2022/08/09 02:50:53;;;;;;;4.75;3.17;;;;;;;-140.72;100.00;52476.09;4994832;28;20050;-67
2022/08/09 02:53:25;;;;;;;5.80;4.15;;;;;;;-140.72;100.00;52522.75;4993298;28;20026;-68
2022/08/09 02:55:52;;;;;;;6.25;3.47;;;;;;;-140.72;100.00;52488.25;4988261;28;20401;-67
2022/08/09 02:58:21;;;;;;;8.50;4.03;;;;;;;-140.72;100.00;52512.59;4994691;28;20061;-68
2022/08/09 03:00:47;;;;;;;5.32;3.42;;;;;;;-140.72;100.00;52490.28;4994778;28;20323;-67
2022/08/09 03:03:13;;;;;;;7.80;3.58;;;;;;;-140.72;100.00;52488.25;5007592;28;20026;-67
2022/08/09 03:05:40;;;;;;;7.68;4.20;;;;;;;-140.72;100.00;52514.63;4993505;28;20037;-67
2022/08/09 03:08:08;;;;;;;7.22;3.33;;;;;;;-140.72;100.00;52486.22;4994613;28;20023;-67
2022/08/09 03:10:35;;;;;;;6.43;4.35;;;;;;;-140.72;100.00;52494.34;4992539;28;20052;-68
2022/08/09 03:13:01;;;;;;;5.82;3.38;;;;;;;-140.72;100.00;52532.91;4994086;28;20030;-68
2022/08/09 03:15:28;;;;;;;4.88;3.17;;;;;;;-140.72;100.00;52484.19;4998890;28;20053;-68
2022/08/09 03:17:53;;;;;;;4.85;3.50;;;;;;;-140.72;100.00;52506.53;4994564;28;20035;-68
2022/08/09 03:20:19;;;;;;;6.18;4.18;;;;;;;-140.72;100.00;52553.19;4993673;28;20514;-67
2022/08/09 03:22:46;;;;;;;5.75;4.00;;;;;;;-140.72;100.00;52506.53;5009396;28;20041;-68
2022/08/09 03:25:13;;;;;;;6.68;3.90;;;;;;;-140.72;100.00;52516.66;4994102;28;20105;-67
2022/08/09 03:27:42;;;;;;;5.25;3.80;;;;;;;-140.72;100.00;52500.44;4994077;28;20028;-67
2022/08/09 03:30:09;;;;;;;6.00;3.53;;;;;;;-140.72;100.00;52520.72;4992697;28;20029;-68
2022/08/09 03:32:36;;;;;;;6.95;4.15;;;;;;;-140.72;100.00;52504.50;4992691;28;20030;-68
2022/08/09 03:35:01;;;;;;;4.78;3.65;;;;;;;-140.72;100.00;52510.59;4992662;28;20054;-67
2022/08/09 03:37:27;;;;;;;4.18;3.20;;;;;;;-140.72;100.00;52514.63;4994234;28;20053;-67
2022/08/09 03:39:53;;;;;;;6.80;3.35;;;;;;;-140.72;100.00;52551.16;4994206;28;20153;-67
2022/08/09 03:42:18;;;;;;;4.45;2.90;;;;;;;-140.72;100.00;52508.56;4993805;28;20034;-68
2022/08/09 03:44:44;;;;;;;5.82;3.75;;;;;;;-140.72;100.00;52502.47;4994140;28;20359;-67
2022/08/09 03:47:09;;;;;;;5.32;2.90;;;;;;;-140.72;100.00;52520.72;4997545;28;20034;-68
2022/08/09 03:49:35;;;;;;;5.80;3.17;;;;;;;-140.72;100.00;52514.63;4994502;28;20397;-68
2022/08/09 03:52:01;;;;;;;5.90;3.75;;;;;;;-140.72;100.00;52502.47;5000837;28;20111;-67
2022/08/09 03:54:47;;;;;;;5.95;3.60;;;;;;;-140.72;100.00;52516.66;4993908;28;20100;-67
2022/08/09 03:57:14;;;;;;;6.72;3.88;;;;;;;-140.72;100.00;52502.47;4994369;28;20048;-68
2022/08/09 03:59:43;;;;;;;7.30;3.63;;;;;;;-140.72;100.00;52510.59;4994694;28;20030;-67
2022/08/09 04:02:08;;;;;;;6.28;3.70;;;;;;;-140.72;100.00;52492.31;4998021;28;20030;-68
2022/08/09 04:04:34;;;;;;;5.38;3.47;;;;;;;-140.72;100.00;52494.34;4999794;28;20601;-67
2022/08/09 04:07:01;;;;;;;6.38;3.58;;;;;;;-140.72;100.00;52530.88;4993472;28;20390;-67
2022/08/09 04:09:26;;;;;;;5.95;3.30;;;;;;;-140.72;100.00;52522.75;4993395;28;20426;-67
2022/08/09 04:12:18;;;;;;;4.93;3.88;;;;;;;-140.72;100.00;52504.50;4993467;28;20100;-67
2022/08/09 04:14:43;;;;;;;5.20;3.50;;;;;;;-140.72;100.00;52496.38;4983257;28;20039;-67
2022/08/09 04:17:09;;;;;;;4.40;3.20;;;;;;;-140.72;100.00;52488.25;5008525;28;20030;-67
2022/08/09 04:19:34;;;;;;;5.60;3.63;;;;;;;-140.72;100.00;52553.19;4993707;28;20065;-68
2022/08/09 04:22:00;;;;;;;5.38;3.63;;;;;;;-140.72;100.00;52500.44;4994212;28;20023;-67
2022/08/09 04:24:25;;;;;;;4.55;3.28;;;;;;;-140.72;100.00;52502.47;4996330;28;20026;-67
2022/08/09 04:26:52;;;;;;;9.55;3.42;;;;;;;-140.72;100.00;52524.78;4997611;28;20149;-68
2022/08/09 04:29:17;;;;;;;5.65;3.92;;;;;;;-140.72;100.00;52522.75;4997351;28;20042;-68
2022/08/09 04:31:43;;;;;;;4.93;3.83;;;;;;;-140.72;100.00;52496.38;4997682;28;20022;-68
2022/08/09 04:34:08;;;;;;;6.80;3.60;;;;;;;-140.72;100.00;52514.63;5015367;28;20050;-68
2022/08/09 04:36:34;;;;;;;4.80;3.42;;;;;;;-140.72;100.00;52496.38;5022160;28;20389;-67
2022/08/09 04:39:02;;;;;;;7.03;3.63;;;;;;;-140.72;100.00;52502.47;4998344;28;20062;-71
2022/08/09 04:41:28;;;;;;;7.43;3.83;;;;;;;-140.72;100.00;52561.31;4996941;28;20026;-70
2022/08/09 04:43:54;;;;;;;4.65;3.78;;;;;;;-140.72;100.00;52520.72;4997746;28;20060;-77
2022/08/09 04:46:20;;;;;;;5.63;3.85;;;;;;;-140.72;100.00;52486.22;4998916;28;20034;-75
2022/08/09 04:48:45;;;;;;;5.13;3.53;;;;;;;-140.72;100.00;52530.88;4995767;28;20034;-78
2022/08/09 04:51:11;;;;;;;6.57;3.92;;;;;;;-140.72;100.00;52451.72;4996096;28;20041;-71
2022/08/09 04:53:38;;;;;;;7.75;3.50;;;;;;;-140.72;100.00;52516.66;4995306;28;20097;-72
2022/08/09 04:56:05;;;;;;;4.55;3.55;;;;;;;-140.72;100.00;52520.72;4998581;28;20107;-71
2022/08/09 04:58:31;;;;;;;5.43;3.92;;;;;;;-140.72;100.00;52494.34;4996788;28;20026;-70
2022/08/09 05:00:57;;;;;;;5.60;4.10;;;;;;;-140.72;100.00;52512.59;4996832;28;20038;-71
2022/08/09 05:06:44;;;;;;;5.15;3.47;;;;;;;-140.72;100.00;52518.69;4996818;28;20081;-70
2022/08/09 05:09:09;;;;;;;5.18;3.72;;;;;;;-140.72;100.00;52510.59;4996406;28;20038;-70
2022/08/09 05:11:34;;;;;;;5.25;3.75;;;;;;;-140.72;100.00;52488.25;4998445;28;20129;-70
2022/08/09 05:14:00;;;;;;;4.72;4.00;;;;;;;-140.72;100.00;52508.56;4996198;28;20036;-71
2022/08/09 05:16:25;;;;;;;9.15;4.03;;;;;;;-140.72;100.00;52536.97;4996294;28;20109;-70
2022/08/09 05:18:50;;;;;;;11.48;3.80;;;;;;;-140.72;100.00;52516.66;4996269;28;20094;-74
2022/08/09 05:21:16;;;;;;;5.38;3.28;;;;;;;-140.72;100.00;52522.75;5011467;28;20129;-71
2022/08/09 05:23:42;;;;;;;5.72;2.90;;;;;;;-140.72;100.00;52474.06;5001898;28;20113;-78
2022/08/09 05:26:08;;;;;;;5.10;3.17;;;;;;;-140.72;100.00;52478.13;4997729;28;20038;-74
2022/08/09 05:28:34;;;;;;;4.70;3.38;;;;;;;-140.72;100.00;52520.72;4996379;28;20113;-73
2022/08/09 05:30:59;;;;;;;4.63;3.35;;;;;;;-140.72;100.00;52524.78;4996531;28;20121;-74
2022/08/09 05:33:24;;;;;;;4.47;3.25;;;;;;;-140.72;100.00;52504.50;4994177;28;20038;-76
2022/08/09 05:35:50;;;;;;;4.68;3.47;;;;;;;-140.72;100.00;52465.94;5011295;28;20041;-74
2022/08/09 05:38:15;;;;;;;6.70;3.28;;;;;;;-140.72;100.00;52480.16;4996779;28;20500;-78
2022/08/09 05:40:40;;;;;;;10.50;3.83;;;;;;;-140.72;100.00;52476.09;4998815;28;20486;-74
2022/08/09 05:43:06;;;;;;;7.45;3.10;;;;;;;-140.72;100.00;52463.91;5008025;28;20474;-76
2022/08/09 05:45:32;;;;;;;8.52;3.53;;;;;;;-140.72;100.00;52476.09;4996317;28;20065;-76
2022/08/09 05:47:57;;;;;;;6.30;3.45;;;;;;;-140.72;100.00;52467.97;4995619;28;20026;-80
2022/08/09 05:50:24;;;;;;;6.22;3.78;;;;;;;-140.72;100.00;52459.84;5011684;28;20549;-73
2022/08/09 05:52:51;;;;;;;6.60;3.40;;;;;;;-140.72;100.00;52476.09;5013964;28;20165;-75
2022/08/09 05:55:16;;;;;;;6.05;3.30;;;;;;;-140.72;100.00;52472.03;4995358;28;20025;-72
2022/08/09 05:57:42;;;;;;;4.70;3.60;;;;;;;-140.72;100.00;52470.00;5011004;28;20030;-75
2022/08/09 06:00:08;;;;;;;5.13;3.80;;;;;;;-140.72;100.00;52492.31;4997359;28;20023;-73
2022/08/09 06:02:33;;;;;;;7.63;3.78;;;;;;;-140.72;100.00;52488.25;5011168;28;20026;-77
2022/08/09 06:04:59;;;;;;;4.68;3.53;;;;;;;-140.72;100.00;52443.63;4994221;28;20028;-72
2022/08/09 06:07:24;;;;;;;5.00;2.80;;;;;;;-140.72;100.00;52480.16;4995729;28;20100;-71
2022/08/09 06:09:50;;;;;;;5.85;3.80;;;;;;;-140.72;100.00;52447.69;5010080;28;20061;-72
2022/08/09 06:12:15;;;;;;;4.22;2.70;;;;;;;-140.72;100.00;52435.50;4995991;28;20027;-73
2022/08/09 06:14:49;;;;;;;7.35;4.00;;;;;;;-140.72;100.00;52463.91;4996858;28;20121;-72
2022/08/09 06:17:14;;;;;;;4.05;2.50;;;;;;;-140.72;100.00;52445.66;4998412;28;20222;-71
2022/08/09 06:19:40;;;;;;;5.53;3.10;;;;;;;-140.72;100.00;52447.69;4995543;28;20114;-73
2022/08/09 06:22:05;;;;;;;4.47;2.55;;;;;;;-140.72;100.00;52472.03;4996735;28;20030;-71
2022/08/09 06:24:31;;;;;;;6.03;3.08;;;;;;;-140.72;100.00;52463.91;4995304;28;20026;-72
2022/08/09 06:26:56;;;;;;;4.95;3.53;;;;;;;-140.72;100.00;52470.00;4994130;28;20505;-72
2022/08/09 06:29:22;;;;;;;4.50;2.85;;;;;;;-140.72;100.00;52447.69;4994187;28;20044;-72
2022/08/09 06:31:47;;;;;;;4.80;2.92;;;;;;;-140.72;100.00;52457.81;4995421;28;20023;-70
2022/08/09 06:34:13;;;;;;;4.05;2.63;;;;;;;-140.72;100.00;52451.72;4994902;28;20141;-70
2022/08/09 06:36:38;;;;;;;4.07;2.67;;;;;;;-140.72;100.00;52447.69;4993922;28;20026;-70
2022/08/09 06:39:03;;;;;;;4.32;2.75;;;;;;;-140.72;100.00;52431.44;4995337;28;20028;-70
2022/08/09 06:41:29;;;;;;;4.80;2.60;;;;;;;-140.72;100.00;52447.69;4995887;28;20033;-74
2022/08/09 06:43:54;;;;;;;5.05;3.15;;;;;;;-140.72;100.00;52455.78;5010483;28;20138;-73
2022/08/09 06:46:20;;;;;;;4.57;3.03;;;;;;;-140.72;100.00;52472.03;4994126;28;20065;-70
2022/08/09 06:48:45;;;;;;;3.63;2.60;;;;;;;-140.72;100.00;52417.25;4995125;28;20030;-71
2022/08/09 06:51:11;;;;;;;5.15;2.40;;;;;;;-140.72;100.00;52425.34;4994644;28;20030;-71
2022/08/09 06:53:36;;;;;;;5.07;2.65;;;;;;;-140.72;100.00;52470.00;4993627;28;20080;-70
2022/08/09 06:56:02;;;;;;;3.05;2.28;;;;;;;-140.72;100.00;52411.16;5003808;28;20026;-71
2022/08/09 06:58:29;;;;;;;2.70;1.92;;;;;;;-140.72;100.00;52427.38;5007093;28;20027;-73
2022/08/09 07:00:54;;;;;;;3.45;1.95;;;;;;;-140.72;100.00;52435.50;5006156;28;20026;-72
2022/08/09 07:03:21;;;;;;;3.05;2.13;;;;;;;-140.72;100.00;52421.28;5004378;28;20037;-73
2022/08/09 07:05:46;;;;;;;5.72;2.28;;;;;;;-140.72;100.00;52445.66;4994790;28;20120;-70
2022/08/09 07:08:12;;;;;;;4.97;2.13;;;;;;;-140.72;100.00;52431.44;4994442;28;20062;-70
2022/08/09 07:10:37;;;;;;;2.55;1.88;;;;;;;-140.72;100.00;52411.16;4994911;28;20053;-71
2022/08/09 07:13:03;;;;;;;5.55;2.33;;;;;;;-140.72;100.00;52386.81;5014124;28;20057;-71
2022/08/09 07:15:28;;;;;;;2.88;1.70;;;;;;;-140.72;100.00;52378.69;5009166;28;20034;-71
2022/08/09 07:17:53;;;;;;;3.00;2.17;;;;;;;-140.72;100.00;52382.75;4999939;28;20026;-72
2022/08/09 07:20:19;;;;;;;3.13;1.65;;;;;;;-140.72;100.00;52423.31;4994070;28;20034;-73
2022/08/09 07:22:45;;;;;;;2.45;1.45;;;;;;;-140.72;100.00;52423.31;4992910;28;20041;-71
2022/08/09 07:25:11;;;;;;;2.67;1.73;;;;;;;-140.72;100.00;52425.34;4996127;28;20386;-67
2022/08/09 07:27:37;;;;;;;2.95;1.95;;;;;;;-140.72;100.00;52396.94;4995856;28;20027;-67
2022/08/09 07:30:03;;;;;;;4.00;1.63;;;;;;;-140.72;100.00;52370.56;4994912;28;20069;-67
2022/08/09 07:32:29;;;;;;;2.60;1.48;;;;;;;-140.72;100.00;52370.56;5007163;28;20117;-67
2022/08/09 07:34:54;;;;;;;3.35;1.60;;;;;;;-140.72;100.00;52370.56;4995222;28;20506;-68
2022/08/09 07:37:20;;;;;;;2.83;1.63;;;;;;;-140.72;100.00;52360.44;4994856;28;20034;-67
2022/08/09 07:39:45;;;;;;;2.20;1.38;;;;;;;-140.72;100.00;52378.69;4995774;28;20030;-67
2022/08/09 07:42:10;;;;;;;2.28;1.38;;;;;;;-140.72;100.00;52362.44;5005840;28;20029;-67
2022/08/09 07:44:36;;;;;;;1.95;1.25;;;;;;;-140.72;100.00;52392.88;4995225;28;20072;-67
2022/08/09 07:47:01;;;;;;;3.90;1.60;;;;;;;-140.72;100.00;52386.81;4995219;28;20442;-67
2022/08/09 07:49:27;;;;;;;2.30;1.40;;;;;;;-140.72;100.00;52362.44;4999135;28;20030;-67
2022/08/09 07:51:52;;;;;;;0.85;0.50;;;;;;;-140.72;100.00;52366.50;4996244;28;20035;-69
2022/08/09 07:54:17;;;;;;;2.00;1.00;;;;;;;-140.72;100.00;52368.53;4996229;28;20127;-68
2022/08/09 07:56:43;;;;;;;2.58;0.95;;;;;;;-140.72;100.00;52313.75;5000327;28;20038;-69
2022/08/09 07:59:08;;;;;;;2.15;0.75;;;;;;;-140.72;100.00;52344.19;5004638;28;20026;-69
2022/08/09 08:01:34;;;;;;;1.40;0.68;;;;;;;-140.72;100.00;52366.50;4999760;28;20081;-69
2022/08/09 08:04:03;;;;;;;1.17;0.63;;;;;;;-140.72;100.00;52336.06;4992075;28;20041;-68
2022/08/09 08:06:30;;;;;;;3.45;0.85;;;;;;;-140.72;100.00;52330.00;4994452;28;20560;-68
2022/08/09 08:08:55;;;;;;;1.30;0.60;;;;;;;-140.72;100.00;52325.94;4994235;28;20034;-68
2022/08/09 08:11:20;;;;;;;0.93;0.40;;;;;;;-140.72;100.00;52327.97;5000249;28;20026;-68
2022/08/09 08:13:46;;;;;;;1.45;0.75;;;;;;;-140.72;100.00;52340.13;5002863;28;20022;-68
2022/08/09 08:16:11;;;;;;;0.68;0.50;;;;;;;-140.72;100.00;52279.25;4992427;28;20061;-68
2022/08/09 08:18:36;;;;;;;1.42;0.57;;;;;;;-140.72;100.00;52283.31;4992394;28;20117;-67
2022/08/09 08:21:02;;;;;;;2.05;0.68;;;;;;;-140.72;100.00;52299.56;4991607;28;20055;-69
2022/08/09 08:23:27;;;;;;;0.75;0.40;;;;;;;-140.72;100.00;52287.38;4991821;28;20497;-68
2022/08/09 08:25:52;;;;;;;1.25;0.45;;;;;;;-140.72;100.00;52277.22;4993231;28;20383;-69
2022/08/09 08:28:19;;;;;;;0.38;0.20;;;;;;;-140.72;100.00;52273.19;4993756;28;20027;-68
2022/08/09 08:30:44;;;;;;;0.98;0.47;;;;;;;-140.72;100.00;52228.53;4992403;28;20030;-68
2022/08/09 08:33:11;;;;;;;0.50;0.30;;;;;;;-140.72;100.00;52267.09;5008341;28;20037;-68
2022/08/09 08:35:36;;;;;;;2.50;0.77;;;;;;;-140.72;100.00;52246.78;4993467;28;20042;-68
2022/08/09 08:38:02;;;;;;;0.70;0.43;;;;;;;-140.72;100.00;52275.19;5001621;28;20086;-68
2022/08/09 08:40:27;;;;;;;0.70;0.25;;;;;;;-140.72;100.00;52252.88;5000210;28;20026;-69
2022/08/09 08:42:53;;;;;;;2.05;0.57;;;;;;;-140.72;100.00;52220.41;4998664;28;20026;-68
2022/08/09 08:45:31;;;;;;;2.28;0.40;;;;;;;-140.72;100.00;52220.41;5001649;28;20061;-68
2022/08/09 08:47:56;;;;;;;0.40;0.25;;;;;;;-140.72;100.00;52224.47;4997071;28;20049;-68
2022/08/09 08:50:22;;;;;;;1.02;0.30;;;;;;;-140.72;100.00;52135.19;5004377;28;20053;-67
2022/08/09 08:52:48;;;;;;;0.65;0.40;;;;;;;-140.72;0.00;52167.66;5002727;28;20108;-67
2022/08/09 08:55:14;;;;;;;1.17;0.40;;;;;;;-140.72;0.00;52177.81;5002919;28;20031;-67
2022/08/09 08:57:41;;;;;;;2.85;0.47;;;;;;;-140.72;0.00;52177.81;5007157;28;21489;-68
2022/08/09 09:00:09;;;;;;;0.47;0.30;;;;;;;-140.72;0.00;52143.31;5002472;28;20483;-68
2022/08/09 09:02:34;;;;;;;0.88;0.35;;;;;;;-140.72;0.00;52123.03;5003189;28;20026;-69
2022/08/09 09:05:00;;;;;;;0.90;0.25;;;;;;;-140.72;0.00;52165.63;5002979;28;20407;-68
2022/08/09 09:07:29;;;;;;;0.47;0.20;;;;;;;-140.72;0.00;52088.53;4996736;28;20081;-69
2022/08/09 09:09:55;;;;;;;3.25;0.52;;;;;;;-140.72;0.00;52084.47;4997390;28;20029;-68
2022/08/09 09:12:28;;;;;;;1.33;0.30;;;;;;;-140.72;0.00;52106.78;5001676;28;20045;-68
2022/08/09 09:14:57;;;;;;;2.20;0.30;;;;;;;-140.72;0.00;52068.25;4995646;28;20027;-69
2022/08/09 09:17:22;;;;;;;1.80;0.30;;;;;;;-140.72;0.00;52013.47;5001711;28;20035;-68
2022/08/09 09:19:47;;;;;;;0.98;0.47;;;;;;;-140.72;0.00;52009.41;5001274;28;20037;-68
2022/08/09 09:22:15;;;;;;;2.72;0.30;;;;;;;-140.72;0.00;52021.56;4994667;28;20080;-68
2022/08/09 09:24:42;;;;;;;0.45;0.25;;;;;;;-140.72;0.00;51987.09;4997660;28;20058;-67
2022/08/09 09:27:09;;;;;;;3.05;0.52;;;;;;;-140.72;0.00;51997.22;5013830;28;20026;-67
2022/08/09 09:29:38;;;;;;;3.50;0.28;;;;;;;-140.72;0.00;51924.19;5001012;28;20058;-67
2022/08/09 09:32:04;;;;;;;0.80;0.30;;;;;;;-140.72;0.00;51960.72;5004486;28;20433;-67
2022/08/09 09:34:30;;;;;;;0.38;0.15;;;;;;;-140.72;0.00;51964.78;4997945;28;20050;-68
2022/08/09 09:36:56;;;;;;;0.30;0.10;;;;;;;-140.72;0.00;51938.41;4998316;28;20492;-68
2022/08/09 09:39:22;;;;;;;0.30;0.10;;;;;;;-140.72;0.00;51924.19;4995512;28;20031;-67
2022/08/09 09:41:49;;;;;;;4.68;0.20;;;;;;;-140.72;0.00;51944.47;4999583;28;20358;-68
2022/08/09 09:44:22;;;;;;;0.40;0.15;;;;;;;-140.72;0.00;51889.69;4997687;28;20061;-68
2022/08/09 09:46:48;;;;;;;1.05;0.30;;;;;;;-140.72;0.00;51855.22;4998107;28;20036;-68
2022/08/09 09:49:19;;;;;;;0.57;0.10;;;;;;;-140.72;0.00;51863.31;5004333;28;20035;-69
2022/08/09 09:51:44;;;;;;;0.40;0.10;;;;;;;-140.72;0.00;51855.22;5003719;28;20541;-71
2022/08/09 09:54:11;;;;;;;1.27;0.20;;;;;;;-140.72;0.00;51883.63;5004649;28;20050;-69
2022/08/09 09:56:43;;;;;;;0.13;0.08;;;;;;;-140.72;0.00;51845.06;5002172;28;20030;-68
2022/08/09 09:59:10;;;;;;;1.63;0.10;;;;;;;-140.72;0.00;51810.56;5000976;28;20049;-69
2022/08/09 10:01:36;;;;;;;1.77;0.43;;;;;;;-140.72;0.00;51802.47;5000855;28;20034;-67
2022/08/09 10:04:03;;;;;;;1.00;0.28;;;;;;;-140.72;0.00;51778.13;5000194;28;20042;-70
2022/08/09 10:06:41;;;;;;;0.38;0.10;;;;;;;-140.72;0.00;51834.91;5001216;28;20037;-69
2022/08/09 10:09:07;;;;;;;1.02;0.15;;;;;;;-140.72;0.00;51780.16;4988289;28;20022;-68
2022/08/09 10:11:35;;;;;;;0.15;0.03;;;;;;;-140.72;0.00;51792.31;4998734;28;20056;-68
2022/08/09 10:14:02;;;;;;;0.65;0.28;;;;;;;-140.72;0.00;51757.81;4999620;28;20035;-65
2022/08/09 10:16:33;;;;;;;0.45;0.15;;;;;;;-140.72;0.00;51745.66;4995108;28;20113;-69
2022/08/09 10:19:04;;;;;;;0.50;0.10;;;;;;;-140.72;0.00;51745.66;4994449;28;20026;-71
2022/08/09 10:21:49;;;;;;;0.20;0.10;;;;;;;-140.72;0.00;51713.19;5009887;28;20030;-70
2022/08/09 10:24:18;;;;;;;0.90;0.30;;;;;;;-140.72;0.00;51721.31;4983153;28;20038;-72
2022/08/09 10:26:47;;;;;;;0.20;0.10;;;;;;;-140.72;0.00;51729.44;4994790;28;20034;-70
2022/08/09 10:29:13;;;;;;;1.85;0.30;;;;;;;-140.72;0.00;51703.06;4995092;28;20061;-71
2022/08/09 10:31:52;;;;;;;0.30;0.10;;;;;;;-140.72;0.00;51729.44;4993935;28;20068;-69
2022/08/09 10:34:19;;;;;;;0.40;0.10;;;;;;;-140.72;0.00;51709.13;4994295;28;20054;-70
2022/08/09 10:36:59;;;;;;;1.08;0.43;;;;;;;-140.72;0.00;51729.44;5000959;28;20030;-70
2022/08/09 10:39:25;;;;;;;3.03;0.45;;;;;;;-140.72;0.00;51699.00;4994095;28;20212;-70
2022/08/09 10:41:50;;;;;;;0.50;0.20;;;;;;;-140.72;0.00;51650.31;4994891;28;20034;-69
2022/08/09 10:44:21;;;;;;;5.70;0.38;;;;;;;-140.72;0.00;51652.34;4994455;28;20060;-70
2022/08/09 10:47:24;;;;;;;0.85;0.20;;;;;;;-140.72;0.00;51599.59;5009912;28;20058;-70
2022/08/09 10:50:08;;;;;;;3.60;0.20;;;;;;;-140.72;0.00;51636.09;4980373;28;20037;-67
2022/08/09 10:52:33;;;;;;;0.10;0.00;;;;;;;-140.72;0.00;51628.00;4991317;28;20105;-70
2022/08/09 10:55:27;;;;;;;0.20;0.10;;;;;;;-140.72;0.00;51563.06;4994114;28;20546;-69
2022/08/09 10:57:54;;;;;;;1.85;0.43;;;;;;;-140.72;0.00;51589.44;4988223;28;20070;-74
2022/08/09 11:00:40;;;;;;;0.20;0.10;;;;;;;-140.72;0.00;51573.22;4995787;28;20026;-75
2022/08/09 11:03:24;;;;;;;1.80;0.30;;;;;;;-140.72;0.00;51546.84;5011645;28;20089;-72
2022/08/09 11:06:14;;;;;;;0.50;0.20;;;;;;;-140.72;0.00;51542.78;4994207;28;20409;-78
2022/08/09 11:08:41;;;;;;;4.72;0.30;;;;;;;-140.72;0.00;51559.00;4996154;28;20038;-68
2022/08/09 11:11:07;;;;;;;0.55;0.15;;;;;;;-140.72;0.00;51589.44;4999698;28;20145;-75
2022/08/09 11:13:32;;;;;;;0.75;0.10;;;;;;;-140.72;0.00;51528.59;4995498;28;20026;-76
2022/08/09 11:16:35;;;;;;;3.53;0.20;;;;;;;-140.72;0.00;51550.91;5010846;28;20553;-77
2022/08/09 11:19:03;;;;;;;4.38;0.30;;;;;;;-140.72;0.00;51506.25;4998221;28;20113;-73
2022/08/09 11:21:48;;;;;;;0.30;0.10;;;;;;;-140.72;0.00;51469.75;5005979;28;20030;-70
2022/08/09 11:24:13;;;;;;;0.40;0.10;;;;;;;-140.72;0.00;51534.66;5003365;28;20057;-71